Time;durP1;ratioP1;P1;durP2;ratioP2;P2;SDS_P1;SDS_P2;PMS_P1;PMS_P2;Temp;Humidity;BMP_temperature;BMP_pressure;BME280_temperature;BME280_humidity;BME280_pressure;Samples;Min_cycle;Max_cycle;Signal;HPM_P1;HPM_P2
2022/04/14 00:00:53;;;;;;;2.05;1.20;;;;;;;28.16;29.18;96598.34;4920389;28;20042;-39
2022/04/14 00:03:19;;;;;;;7.10;1.60;;;;;;;28.15;29.22;96597.50;4917781;28;20078;-33
2022/04/14 00:05:45;;;;;;;3.22;1.08;;;;;;;28.16;29.05;96599.22;4903507;28;20031;-30
2022/04/14 00:08:10;;;;;;;2.90;0.90;;;;;;;28.15;29.24;96597.50;4905696;28;20043;-32
2022/04/14 00:10:36;;;;;;;2.33;1.20;;;;;;;28.16;29.21;96598.34;4906803;28;20032;-32
2022/04/14 00:13:01;;;;;;;3.53;1.20;;;;;;;28.15;29.12;96600.13;4906588;28;20602;-36
2022/04/14 00:15:28;;;;;;;2.45;1.08;;;;;;;28.15;29.01;96592.22;4903574;28;20047;-37
2022/04/14 00:17:54;;;;;;;4.05;1.10;;;;;;;28.15;29.07;96591.41;4903061;28;20031;-39
2022/04/14 00:20:19;;;;;;;2.85;1.33;;;;;;;28.15;29.13;96586.13;4907923;28;20461;-35
2022/04/14 00:22:44;;;;;;;2.15;1.20;;;;;;;28.14;29.25;96587.91;4921548;28;20035;-32
2022/04/14 00:25:11;;;;;;;1.83;1.20;;;;;;;28.13;29.21;96580.97;4918228;28;20035;-40
2022/04/14 00:27:37;;;;;;;4.28;1.10;;;;;;;28.14;29.20;96587.91;4923200;28;20040;-32
2022/04/14 00:30:03;;;;;;;2.42;1.23;;;;;;;28.14;29.14;96589.69;4922796;28;20039;-35
2022/04/14 00:32:31;;;;;;;1.27;1.02;;;;;;;28.13;29.24;96588.88;4936796;28;20043;-33
2022/04/14 00:34:56;;;;;;;3.03;1.10;;;;;;;28.13;29.24;96594.13;4922984;28;21289;-34
2022/04/14 00:37:21;;;;;;;2.63;1.40;;;;;;;28.13;29.15;96599.41;4922574;28;20039;-37
2022/04/14 00:39:47;;;;;;;4.68;1.35;;;;;;;28.12;29.04;96592.47;4922757;28;20438;-32
2022/04/14 00:42:13;;;;;;;2.28;1.30;;;;;;;28.11;29.37;96595.19;4923588;28;20170;-32
2022/04/14 00:44:38;;;;;;;5.85;1.10;;;;;;;28.12;29.26;96597.72;4924600;28;20047;-31
2022/04/14 00:47:04;;;;;;;2.28;1.30;;;;;;;28.12;29.17;96605.63;4925245;28;20058;-33
2022/04/14 00:49:30;;;;;;;2.83;1.17;;;;;;;28.12;29.21;96602.13;4938098;28;20098;-33
2022/04/14 00:51:55;;;;;;;2.30;1.15;;;;;;;28.11;29.23;96601.28;4919435;28;20082;-33
2022/04/14 00:54:20;;;;;;;2.72;1.10;;;;;;;28.11;29.15;96606.53;4921570;28;20026;-35
2022/04/14 00:56:46;;;;;;;2.28;1.13;;;;;;;28.12;29.20;96602.13;4923511;28;20038;-31
2022/04/14 00:59:11;;;;;;;2.22;1.23;;;;;;;28.11;29.05;96606.53;4923649;28;20038;-33
2022/04/14 01:01:37;;;;;;;2.85;1.05;;;;;;;28.10;29.30;96604.03;4938910;28;20291;-31
2022/04/14 01:04:02;;;;;;;2.17;1.00;;;;;;;28.09;29.28;96603.19;4921325;28;20095;-33
2022/04/14 01:06:27;;;;;;;2.90;1.30;;;;;;;28.09;29.31;96608.44;4922765;28;20063;-33
2022/04/14 01:11:37;;;;;;;2.15;1.13;;;;;;;28.09;29.12;96613.72;4921876;28;20046;-32
2022/04/14 01:14:03;;;;;;;2.47;1.13;;;;;;;28.09;29.28;96613.72;4923986;28;20043;-31
2022/04/14 01:16:28;;;;;;;3.00;1.13;;;;;;;28.08;29.47;96612.03;4929880;28;20111;-34
2022/04/14 01:18:53;;;;;;;1.88;0.95;;;;;;;28.08;29.24;96617.31;4931554;29;20720;-32
2022/04/14 01:21:21;;;;;;;2.38;1.25;;;;;;;28.08;29.01;96619.09;4907007;28;22304;-30
2022/04/14 01:23:47;;;;;;;4.20;0.90;;;;;;;28.08;29.21;96611.19;4894072;28;20092;-30
2022/04/14 01:26:12;;;;;;;2.40;1.02;;;;;;;28.07;29.32;96617.41;4890215;28;20871;-34
2022/04/14 01:28:37;;;;;;;2.45;1.30;;;;;;;28.07;29.25;96617.41;4892551;28;20047;-37
2022/04/14 01:31:03;;;;;;;2.30;1.10;;;;;;;28.07;29.21;96612.97;4890758;28;20036;-36
2022/04/14 01:33:28;;;;;;;2.15;0.90;;;;;;;28.07;29.17;96620.88;4892378;28;20970;-32
2022/04/14 01:35:54;;;;;;;1.73;1.00;;;;;;;28.06;29.36;96616.56;4893296;28;20801;-33
2022/04/14 01:38:19;;;;;;;2.80;0.90;;;;;;;28.05;29.17;96622.78;4897143;28;20407;-29
2022/04/14 01:40:45;;;;;;;3.88;1.25;;;;;;;28.06;29.17;96621.81;4895163;28;20035;-35
2022/04/14 01:43:10;;;;;;;1.20;0.88;;;;;;;28.06;29.12;96627.09;4893268;28;20038;-30
2022/04/14 01:45:35;;;;;;;3.47;1.00;;;;;;;28.04;29.28;96621.91;4886560;28;20067;-32
2022/04/14 01:48:01;;;;;;;2.55;1.00;;;;;;;28.05;29.31;96622.78;4883744;28;20895;-32
2022/04/14 01:50:26;;;;;;;1.60;0.80;;;;;;;28.06;29.19;96623.63;4883723;28;20043;-33
2022/04/14 01:52:52;;;;;;;2.38;1.08;;;;;;;28.06;29.30;96623.63;4884925;28;20042;-33
2022/04/14 01:55:17;;;;;;;2.13;1.00;;;;;;;28.02;29.17;96629.09;4885689;28;20043;-34
2022/04/14 01:57:44;;;;;;;2.22;1.02;;;;;;;28.04;29.21;96634.25;4883227;28;20043;-29
2022/04/14 02:00:10;;;;;;;2.28;1.20;;;;;;;28.04;29.19;96637.72;4885448;28;20062;-33
2022/04/14 02:02:35;;;;;;;2.10;0.90;;;;;;;28.04;29.29;96636.88;4884483;28;22383;-32
2022/04/14 02:05:01;;;;;;;1.52;1.00;;;;;;;28.04;29.15;96642.16;4888707;28;20035;-31
2022/04/14 02:07:27;;;;;;;2.40;1.20;;;;;;;28.03;29.25;96640.44;4888782;28;20099;-31
2022/04/14 02:09:52;;;;;;;1.67;1.02;;;;;;;28.03;29.11;96640.44;4889513;28;20150;-32
2022/04/14 02:12:17;;;;;;;3.17;1.08;;;;;;;28.00;29.27;96640.66;4888208;28;20053;-34
2022/04/14 02:14:43;;;;;;;1.80;1.10;;;;;;;28.02;29.24;96642.25;4888722;28;20043;-34
2022/04/14 02:17:09;;;;;;;2.13;1.02;;;;;;;28.03;29.20;96648.34;4890087;28;20032;-34
2022/04/14 02:19:34;;;;;;;3.28;1.00;;;;;;;28.02;29.40;96644.03;4888134;28;20031;-33
2022/04/14 02:21:59;;;;;;;1.70;1.20;;;;;;;28.02;29.13;96646.66;4921418;28;20093;-31
2022/04/14 02:24:25;;;;;;;1.48;0.82;;;;;;;28.02;29.24;96644.88;4925161;28;20482;-35
2022/04/14 02:26:51;;;;;;;3.33;1.30;;;;;;;28.02;29.28;96644.03;4932523;28;20038;-30
2022/04/14 02:29:17;;;;;;;2.00;1.10;;;;;;;28.01;29.36;96643.19;4925014;28;20118;-33
2022/04/14 02:31:42;;;;;;;1.63;0.93;;;;;;;28.01;29.22;96643.19;4924689;28;20047;-33
2022/04/14 02:34:08;;;;;;;3.00;0.95;;;;;;;28.01;29.18;96651.09;4925718;28;20039;-33
2022/04/14 02:36:33;;;;;;;1.90;1.00;;;;;;;28.00;29.17;96640.66;4934722;28;20035;-32
2022/04/14 02:38:58;;;;;;;1.60;0.80;;;;;;;27.99;29.28;96644.25;4924307;28;20070;-37
2022/04/14 02:41:24;;;;;;;2.00;0.93;;;;;;;27.99;29.21;96655.63;4923565;28;20031;-28
2022/04/14 02:43:50;;;;;;;1.95;1.00;;;;;;;27.99;29.28;96649.53;4926787;28;20501;-35
2022/04/14 02:46:15;;;;;;;2.25;1.20;;;;;;;27.99;29.28;96654.78;4925341;28;20152;-31
2022/04/14 02:48:41;;;;;;;1.58;1.17;;;;;;;27.98;29.33;96658.34;4923946;28;20039;-31
2022/04/14 02:51:06;;;;;;;1.80;0.95;;;;;;;27.98;29.20;96660.97;4924570;28;20043;-30
2022/04/14 02:53:31;;;;;;;1.60;0.80;;;;;;;27.98;29.31;96663.59;4925539;28;20842;-30
2022/04/14 02:55:57;;;;;;;2.85;1.38;;;;;;;27.98;29.23;96660.97;4923402;28;20561;-35
2022/04/14 02:58:22;;;;;;;2.05;1.10;;;;;;;27.96;29.26;96666.34;4924009;28;20407;-31
2022/04/14 03:00:49;;;;;;;1.95;1.05;;;;;;;27.97;29.26;96667.19;4926014;28;20043;-32
2022/04/14 03:03:15;;;;;;;2.28;1.00;;;;;;;27.96;29.19;96665.50;4925276;28;20035;-33
2022/04/14 03:05:40;;;;;;;2.72;1.00;;;;;;;27.96;29.29;96670.78;4926185;28;20043;-33
2022/04/14 03:08:06;;;;;;;2.15;0.90;;;;;;;27.95;29.35;96664.66;4925420;28;20402;-36
2022/04/14 03:10:31;;;;;;;1.92;0.98;;;;;;;27.94;29.43;96667.38;4925955;28;20065;-30
2022/04/14 03:12:57;;;;;;;1.77;0.95;;;;;;;27.93;29.46;96671.81;4924294;28;20077;-33
2022/04/14 03:15:23;;;;;;;4.93;1.10;;;;;;;27.92;29.31;96664.88;4923064;28;20809;-33
2022/04/14 03:17:50;;;;;;;1.02;0.93;;;;;;;27.91;29.43;96666.66;4921184;28;20046;-32
2022/04/14 03:20:15;;;;;;;1.05;0.80;;;;;;;27.91;29.47;96671.06;4922490;28;20043;-30
2022/04/14 03:22:41;;;;;;;1.55;0.90;;;;;;;27.91;29.36;96674.56;4923278;28;20035;-32
2022/04/14 03:25:07;;;;;;;1.77;1.02;;;;;;;27.90;29.27;96675.50;4930262;28;20036;-34
2022/04/14 03:27:33;;;;;;;2.78;1.25;;;;;;;27.90;29.45;96670.22;4933582;28;20393;-31
2022/04/14 03:29:59;;;;;;;2.33;1.10;;;;;;;27.89;29.21;96673.78;4931363;28;20031;-37
2022/04/14 03:32:25;;;;;;;2.60;1.20;;;;;;;27.89;29.25;96681.69;4935267;28;20035;-32
2022/04/14 03:34:51;;;;;;;3.90;1.27;;;;;;;27.89;29.26;96680.84;4933052;28;20031;-33
2022/04/14 03:37:17;;;;;;;3.25;1.20;;;;;;;27.88;29.37;96677.38;4931923;28;20110;-30
2022/04/14 03:39:42;;;;;;;3.33;0.98;;;;;;;27.88;29.30;96680.00;4927480;28;20971;-31
2022/04/14 03:42:08;;;;;;;5.20;1.10;;;;;;;27.87;29.28;96678.31;4927421;28;20040;-30
2022/04/14 03:44:33;;;;;;;1.92;0.90;;;;;;;27.87;29.27;96678.31;4928595;28;20054;-34
2022/04/14 03:46:58;;;;;;;1.38;1.00;;;;;;;27.86;29.20;96681.91;4924064;28;20525;-33
2022/04/14 03:49:24;;;;;;;1.67;0.80;;;;;;;27.88;29.46;96684.44;4924467;28;20042;-32
2022/04/14 03:51:49;;;;;;;1.55;1.25;;;;;;;27.87;29.26;96680.94;4924702;28;20026;-33
2022/04/14 03:54:15;;;;;;;1.77;1.20;;;;;;;27.87;29.40;96682.72;4923186;28;20027;-29
2022/04/14 03:56:40;;;;;;;2.00;1.00;;;;;;;27.86;29.42;96681.91;4926386;28;20031;-30
2022/04/14 03:59:05;;;;;;;1.65;0.80;;;;;;;27.87;29.39;96685.38;4926277;28;20081;-34
2022/04/14 04:01:31;;;;;;;1.63;0.98;;;;;;;27.86;29.38;96681.03;4924860;28;20043;-36
2022/04/14 04:03:56;;;;;;;1.42;0.70;;;;;;;27.86;29.38;96678.41;4923691;28;20023;-35
2022/04/14 04:06:22;;;;;;;2.58;0.82;;;;;;;27.86;29.48;96681.91;4925836;28;20035;-31
2022/04/14 04:08:47;;;;;;;3.28;1.10;;;;;;;27.86;29.31;96681.91;4925334;28;20030;-31
2022/04/14 04:11:12;;;;;;;0.82;0.80;;;;;;;27.86;29.02;96681.03;4920872;28;20027;-34
2022/04/14 04:13:38;;;;;;;2.80;1.20;;;;;;;27.86;29.36;96681.03;4924459;28;20082;-32
2022/04/14 04:16:03;;;;;;;1.30;0.75;;;;;;;27.85;29.33;96680.22;4924561;28;20102;-31
2022/04/14 04:18:30;;;;;;;2.00;1.23;;;;;;;27.85;29.30;96679.34;4924715;28;20038;-32
2022/04/14 04:20:56;;;;;;;1.70;1.20;;;;;;;27.85;29.48;96676.72;4922720;28;20046;-32
2022/04/14 04:23:21;;;;;;;1.23;0.80;;;;;;;27.84;29.29;96675.88;4923293;28;20128;-33
2022/04/14 04:25:48;;;;;;;2.25;0.80;;;;;;;27.84;29.30;96686.41;4922219;28;20035;-31
2022/04/14 04:28:13;;;;;;;1.88;0.75;;;;;;;27.84;29.40;96686.41;4923971;28;20039;-31
2022/04/14 04:30:40;;;;;;;0.60;0.60;;;;;;;27.85;29.32;96693.38;4923984;28;20035;-31
2022/04/14 04:33:05;;;;;;;1.45;0.80;;;;;;;27.83;29.39;96692.63;4923276;28;20038;-31
2022/04/14 04:35:31;;;;;;;2.65;0.90;;;;;;;27.84;29.31;96693.47;4923839;28;20731;-31
2022/04/14 04:37:56;;;;;;;2.15;0.90;;;;;;;27.83;29.28;96692.63;4935980;28;20027;-31
2022/04/14 04:40:22;;;;;;;1.33;0.82;;;;;;;27.83;29.42;96692.63;4924475;28;20143;-30
2022/04/14 04:42:47;;;;;;;0.70;0.50;;;;;;;27.83;29.33;96697.03;4920565;28;20035;-33
2022/04/14 04:45:12;;;;;;;2.80;0.98;;;;;;;27.81;29.37;96688.41;4921414;28;20031;-34
2022/04/14 04:47:38;;;;;;;1.00;0.70;;;;;;;27.83;29.65;96695.25;4933080;28;20034;-35
2022/04/14 04:50:06;;;;;;;1.40;0.88;;;;;;;27.83;29.37;96695.25;4931392;28;20035;-35
2022/04/14 04:52:33;;;;;;;1.30;0.85;;;;;;;27.83;29.41;96697.88;4930758;28;20031;-31
2022/04/14 04:54:58;;;;;;;3.72;2.33;;;;;;;27.82;29.44;96693.56;4930923;28;20043;-35
2022/04/14 04:57:24;;;;;;;3.60;1.40;;;;;;;27.82;29.41;96695.34;4932376;28;20031;-34
2022/04/14 04:59:49;;;;;;;1.88;1.00;;;;;;;27.81;29.40;96699.78;4930514;28;20038;-32
2022/04/14 05:02:14;;;;;;;2.67;1.00;;;;;;;27.80;29.42;96698.06;4930076;28;20046;-32
2022/04/14 05:04:40;;;;;;;1.75;0.95;;;;;;;27.81;29.03;96706.81;4928152;28;20083;-32
2022/04/14 05:07:05;;;;;;;1.42;0.98;;;;;;;27.80;29.46;96705.16;4927953;28;20548;-36
2022/04/14 05:09:31;;;;;;;2.03;1.00;;;;;;;27.80;29.40;96713.03;4928919;28;20027;-31
2022/04/14 05:11:57;;;;;;;0.95;0.75;;;;;;;27.80;29.28;96708.59;4929023;28;20167;-34
2022/04/14 05:14:22;;;;;;;1.33;1.00;;;;;;;27.79;29.52;96712.19;4931690;28;20059;-33
2022/04/14 05:16:48;;;;;;;1.13;0.80;;;;;;;27.79;29.42;96712.19;4926392;28;20055;-30
2022/04/14 05:19:13;;;;;;;1.75;0.90;;;;;;;27.78;29.32;96721.03;4929696;28;20034;-31
2022/04/14 05:21:38;;;;;;;1.38;1.00;;;;;;;27.79;29.40;96733.25;4922669;28;20580;-31
2022/04/14 05:24:04;;;;;;;2.70;0.70;;;;;;;27.78;29.48;96735.06;4923769;28;20039;-29
2022/04/14 05:26:30;;;;;;;1.08;0.80;;;;;;;27.79;29.43;96738.50;4924058;28;20039;-32
2022/04/14 05:28:55;;;;;;;1.73;0.90;;;;;;;27.78;29.34;96742.09;4922167;28;20390;-34
2022/04/14 05:31:21;;;;;;;1.13;0.82;;;;;;;27.78;29.42;96742.09;4923570;28;20035;-34
2022/04/14 05:33:47;;;;;;;1.20;0.80;;;;;;;27.79;29.39;96749.03;4921974;28;20486;-34
2022/04/14 05:36:12;;;;;;;2.40;0.93;;;;;;;27.78;29.53;96742.09;4920858;28;20038;-31
2022/04/14 05:38:37;;;;;;;1.67;0.75;;;;;;;27.78;29.53;96748.22;4925833;28;20499;-31
2022/04/14 05:41:03;;;;;;;1.55;0.80;;;;;;;27.78;29.46;96752.63;4925725;28;20042;-31
2022/04/14 05:43:30;;;;;;;2.85;1.08;;;;;;;27.77;29.33;96750.94;4927528;28;20040;-33
2022/04/14 05:45:55;;;;;;;2.42;1.10;;;;;;;27.78;29.50;96750.84;4926957;28;20035;-33
2022/04/14 05:48:21;;;;;;;1.88;1.00;;;;;;;27.77;29.32;96762.31;4927254;28;20034;-33
2022/04/14 05:50:47;;;;;;;1.45;0.82;;;;;;;27.77;29.38;96756.22;4924687;28;20031;-31
2022/04/14 05:53:12;;;;;;;1.65;1.00;;;;;;;27.78;29.43;96768.44;4926800;28;20731;-30
2022/04/14 05:55:39;;;;;;;1.52;0.80;;;;;;;27.76;29.49;96763.25;4925022;28;20039;-29
2022/04/14 05:58:05;;;;;;;1.05;0.77;;;;;;;27.76;29.39;96767.66;4939963;28;20110;-33
2022/04/14 06:00:31;;;;;;;0.57;0.57;;;;;;;27.77;29.32;96764.94;4926889;28;21058;-31
2022/04/14 06:02:59;;;;;;;0.82;0.65;;;;;;;27.76;29.31;96759.75;4928924;28;20073;-34
2022/04/14 06:05:28;;;;;;;1.10;0.70;;;;;;;27.77;29.27;96770.19;4926454;28;20058;-31
2022/04/14 06:07:54;;;;;;;0.98;0.77;;;;;;;27.76;29.54;96765.03;4923906;28;20036;-39
2022/04/14 06:10:19;;;;;;;0.82;0.70;;;;;;;27.75;29.52;96772.09;4925395;28;20065;-32
2022/04/14 06:12:45;;;;;;;1.52;0.70;;;;;;;27.76;29.26;96780.81;4921751;28;20031;-33
2022/04/14 06:15:10;;;;;;;2.00;0.90;;;;;;;27.78;29.45;96776.31;4921943;28;20079;-30
2022/04/14 06:17:36;;;;;;;1.70;0.80;;;;;;;27.76;29.34;96775.56;4925753;28;20036;-31
2022/04/14 06:20:03;;;;;;;1.85;1.27;;;;;;;27.78;29.34;96781.59;4926878;28;20027;-33
2022/04/14 06:22:28;;;;;;;3.78;1.23;;;;;;;27.77;29.48;96779.91;4925625;28;20028;-31
2022/04/14 06:24:56;;;;;;;5.30;1.45;;;;;;;27.77;29.33;96777.28;4926900;28;20042;-31
2022/04/14 06:27:22;;;;;;;3.00;1.52;;;;;;;27.76;29.42;96778.19;4928448;28;20115;-33
2022/04/14 06:29:47;;;;;;;2.22;1.38;;;;;;;27.77;29.53;96778.09;4920620;28;20027;-30
2022/04/14 06:32:13;;;;;;;2.90;1.30;;;;;;;27.79;29.41;96780.66;4921507;28;20991;-31
2022/04/14 06:34:38;;;;;;;4.57;1.70;;;;;;;27.79;29.57;96785.91;4923211;28;20091;-32
2022/04/14 06:37:04;;;;;;;8.93;1.95;;;;;;;27.79;29.41;96778.00;4924657;28;20491;-32
2022/04/14 06:39:29;;;;;;;3.28;1.60;;;;;;;27.79;29.42;96775.38;4920177;28;20059;-35
2022/04/14 06:41:55;;;;;;;7.32;2.08;;;;;;;27.79;29.50;96780.66;4924077;28;20031;-37
2022/04/14 06:44:20;;;;;;;13.02;2.60;;;;;;;27.81;29.39;96777.91;4922493;28;20031;-36
2022/04/14 06:46:46;;;;;;;6.13;2.83;;;;;;;27.81;29.48;96778.78;4915679;28;20047;-31
2022/04/14 06:49:11;;;;;;;11.15;2.97;;;;;;;27.82;29.61;96780.47;4915327;28;20047;-33
2022/04/14 06:51:37;;;;;;;9.82;4.10;;;;;;;27.81;29.41;96778.78;4921703;28;20058;-30
2022/04/14 06:54:02;;;;;;;11.70;4.25;;;;;;;27.83;29.52;96781.28;4925344;28;20039;-31
2022/04/14 06:56:28;;;;;;;12.27;4.78;;;;;;;27.83;29.47;96781.28;4921983;28;20035;-32
2022/04/14 06:58:53;;;;;;;15.95;4.65;;;;;;;27.84;29.47;96778.56;4927452;28;20051;-29
2022/04/14 07:01:18;;;;;;;11.05;4.88;;;;;;;27.84;29.49;96781.19;4927030;28;20035;-32
2022/04/14 07:03:44;;;;;;;13.90;5.15;;;;;;;27.85;29.54;96785.56;4925012;28;20046;-33
2022/04/14 07:06:09;;;;;;;12.57;5.43;;;;;;;27.85;29.54;96782.91;4926234;28;20067;-32
2022/04/14 07:08:35;;;;;;;9.77;4.85;;;;;;;27.86;29.37;96781.97;4924366;28;20039;-33
2022/04/14 07:11:01;;;;;;;10.73;4.15;;;;;;;27.86;29.56;96781.97;4924151;28;20035;-31
2022/04/14 07:13:26;;;;;;;9.35;3.92;;;;;;;27.87;29.67;96785.44;4923671;28;20031;-37
2022/04/14 07:15:52;;;;;;;10.85;4.57;;;;;;;27.87;29.43;96783.66;4925879;28;20394;-31
2022/04/14 07:18:17;;;;;;;8.15;3.97;;;;;;;27.89;29.61;96786.19;4926330;28;20048;-31
2022/04/14 07:20:45;;;;;;;12.00;4.68;;;;;;;27.90;29.59;96788.75;4926086;28;20042;-37
2022/04/14 07:23:11;;;;;;;11.40;4.47;;;;;;;27.90;29.66;96783.47;4925165;28;20042;-35
2022/04/14 07:25:36;;;;;;;10.75;4.25;;;;;;;27.91;29.36;96782.53;4925094;28;20036;-32
2022/04/14 07:28:02;;;;;;;9.55;4.75;;;;;;;27.92;29.57;96786.84;4924295;28;20043;-32
2022/04/14 07:30:27;;;;;;;11.88;4.28;;;;;;;27.94;29.60;96788.53;4938138;28;20043;-35
2022/04/14 07:32:53;;;;;;;12.07;4.18;;;;;;;27.95;29.62;96795.50;4923654;28;20042;-32
2022/04/14 07:35:20;;;;;;;11.68;3.72;;;;;;;27.96;29.69;96797.19;4920907;28;20024;-31
2022/04/14 07:37:46;;;;;;;9.02;3.50;;;;;;;27.98;29.56;96803.19;4923677;28;21011;-33
2022/04/14 07:40:11;;;;;;;16.17;3.55;;;;;;;28.00;29.60;96806.59;4923240;28;20030;-31
2022/04/14 07:42:38;;;;;;;8.73;3.20;;;;;;;28.00;29.66;96796.06;4924733;28;20162;-31
2022/04/14 07:45:04;;;;;;;10.15;3.63;;;;;;;28.01;29.62;96805.66;4926613;28;20106;-35
2022/04/14 07:47:30;;;;;;;10.40;3.45;;;;;;;28.02;29.58;96807.34;4924023;28;20079;-30
2022/04/14 07:49:55;;;;;;;10.60;3.28;;;;;;;28.03;29.54;96814.28;4923537;28;20043;-33
2022/04/14 07:52:20;;;;;;;10.13;3.60;;;;;;;28.04;29.67;96816.00;4924401;28;20035;-33
2022/04/14 07:54:46;;;;;;;8.40;3.20;;;;;;;28.05;29.63;96812.44;4924236;28;20104;-33
2022/04/14 07:57:11;;;;;;;8.20;3.03;;;;;;;28.04;29.81;96810.75;4922097;28;20027;-32
2022/04/14 07:59:37;;;;;;;7.55;2.85;;;;;;;28.08;29.65;96816.66;4924294;28;20039;-33
2022/04/14 08:02:02;;;;;;;8.00;2.90;;;;;;;28.09;29.55;96820.97;4923469;28;20126;-31
2022/04/14 08:04:28;;;;;;;6.90;3.40;;;;;;;28.08;29.71;96822.78;4923309;28;20093;-32
2022/04/14 08:06:53;;;;;;;7.10;3.40;;;;;;;28.10;29.74;96823.53;4919135;28;20114;-34
2022/04/14 08:09:19;;;;;;;8.57;3.97;;;;;;;28.10;29.79;96818.25;4916645;28;20122;-36
2022/04/14 08:11:45;;;;;;;19.73;9.50;;;;;;;28.05;29.34;96828.22;4924898;28;20034;-35
2022/04/14 08:14:11;;;;;;;19.50;9.90;;;;;;;27.95;29.46;96821.84;4918249;28;20056;-34
2022/04/14 08:16:36;;;;;;;16.92;9.90;;;;;;;27.82;29.34;96827.88;4917682;28;20513;-37
2022/04/14 08:19:02;;;;;;;18.98;10.70;;;;;;;27.65;29.40;96832.34;4923021;28;20035;-32
2022/04/14 08:21:27;;;;;;;26.88;10.18;;;;;;;27.51;29.70;96835.78;4920592;28;20023;-30
2022/04/14 08:23:53;;;;;;;18.63;7.78;;;;;;;27.38;29.78;96830.41;4920719;28;20504;-30
2022/04/14 08:26:18;;;;;;;21.27;6.72;;;;;;;27.35;30.00;96837.66;4919540;28;20050;-32
2022/04/14 08:28:44;;;;;;;20.52;5.88;;;;;;;27.29;30.01;96830.94;4922541;28;20037;-31
2022/04/14 08:31:14;;;;;;;19.27;5.20;;;;;;;27.28;29.95;96826.63;4920887;28;21835;-29
2022/04/14 08:33:39;;;;;;;9.50;4.32;;;;;;;27.29;30.04;96830.94;4940224;28;20035;-32
2022/04/14 08:36:05;;;;;;;15.70;4.22;;;;;;;27.31;30.00;96836.13;4941043;28;20027;-36
2022/04/14 08:38:31;;;;;;;10.95;4.35;;;;;;;27.33;30.02;96837.72;4918718;28;20034;-32
2022/04/14 08:41:00;;;;;;;28.58;4.72;;;;;;;27.35;30.28;96835.00;4923874;28;20450;-30
2022/04/14 08:43:33;;;;;;;13.48;3.78;;;;;;;27.36;30.02;96832.28;4923755;28;20051;-32
2022/04/14 08:45:59;;;;;;;10.52;3.33;;;;;;;27.39;30.13;96832.09;4918814;28;20024;-32
2022/04/14 08:48:24;;;;;;;10.55;3.83;;;;;;;27.43;30.24;96831.91;4917430;28;20494;-32
2022/04/14 08:50:50;;;;;;;10.32;3.60;;;;;;;27.44;30.13;96833.59;4924308;28;20039;-30
2022/04/14 08:53:17;;;;;;;7.55;3.42;;;;;;;27.46;29.95;96837.84;4923577;28;20041;-31
2022/04/14 08:55:42;;;;;;;9.18;3.78;;;;;;;27.46;29.94;96834.38;4910995;28;21001;-34
2022/04/14 08:58:15;;;;;;;8.90;3.35;;;;;;;27.50;30.20;96839.34;4933490;28;20038;-32
2022/04/14 09:00:41;;;;;;;12.15;4.65;;;;;;;27.52;30.13;96836.63;4918359;28;20122;-30
2022/04/14 09:03:06;;;;;;;10.70;4.00;;;;;;;27.55;29.96;96831.19;4923817;28;20053;-35
2022/04/14 09:05:31;;;;;;;14.98;4.80;;;;;;;27.57;30.13;96836.38;4931629;28;20081;-31
2022/04/14 09:07:57;;;;;;;12.80;3.60;;;;;;;27.59;29.82;96840.59;4930488;28;20024;-32
2022/04/14 09:10:22;;;;;;;12.50;4.78;;;;;;;27.60;29.81;96839.66;4932349;28;20523;-29
2022/04/14 09:12:48;;;;;;;11.45;5.35;;;;;;;27.61;29.92;96836.13;4922845;28;20039;-30
2022/04/14 09:15:15;;;;;;;11.27;4.57;;;;;;;27.61;29.95;96833.47;4929695;28;20028;-31
2022/04/14 09:17:40;;;;;;;7.88;3.63;;;;;;;27.63;30.05;96834.25;4929960;28;20035;-31
2022/04/14 09:20:28;;;;;;;12.05;4.57;;;;;;;27.65;30.12;96836.78;4930215;28;20043;-31
2022/04/14 09:23:09;;;;;;;14.30;5.13;;;;;;;27.68;29.97;96841.03;4928334;28;20095;-34
2022/04/14 09:25:35;;;;;;;7.85;3.08;;;;;;;27.69;30.01;96843.53;4928177;28;20097;-30
2022/04/14 09:28:11;;;;;;;10.52;3.90;;;;;;;27.69;29.91;96838.28;4930171;28;20725;-32
2022/04/14 09:30:36;;;;;;;8.65;3.70;;;;;;;27.70;30.00;96844.41;4944388;28;20123;-31
2022/04/14 09:33:02;;;;;;;9.20;3.72;;;;;;;27.70;29.96;96841.75;4925716;28;20113;-42
2022/04/14 09:35:31;;;;;;;11.60;5.90;;;;;;;27.71;29.95;96843.44;4923380;28;21891;-35
2022/04/14 09:38:06;;;;;;;15.55;6.13;;;;;;;27.72;30.20;96845.16;4922199;28;20935;-40
2022/04/14 09:40:33;;;;;;;11.15;5.13;;;;;;;27.73;30.09;96847.69;4922885;28;20058;-30
2022/04/14 09:42:59;;;;;;;14.63;4.68;;;;;;;27.74;29.94;96845.91;4923473;28;20040;-34
2022/04/14 09:45:25;;;;;;;10.15;4.43;;;;;;;27.74;29.85;96845.91;4927752;28;20039;-30
2022/04/14 09:47:52;;;;;;;8.30;4.28;;;;;;;27.75;29.96;96855.50;4924936;28;20071;-30
2022/04/14 09:50:27;;;;;;;18.98;5.30;;;;;;;27.76;29.90;96846.66;4922786;28;20168;-30
2022/04/14 09:53:15;;;;;;;10.27;5.32;;;;;;;27.75;29.81;96840.56;4932820;28;20039;-30
2022/04/14 09:55:42;;;;;;;11.10;4.20;;;;;;;27.78;29.79;96850.91;4923851;28;20058;-29
2022/04/14 09:58:15;;;;;;;9.73;4.25;;;;;;;27.78;29.74;96839.53;4920924;28;20031;-30
2022/04/14 10:00:51;;;;;;;9.73;4.30;;;;;;;27.78;29.86;96836.88;4925921;28;20443;-31
2022/04/14 10:03:21;;;;;;;11.75;4.78;;;;;;;27.79;29.83;96833.31;4923503;28;20934;-32
2022/04/14 10:05:54;;;;;;;15.32;5.45;;;;;;;27.79;29.69;96835.94;4937223;28;20038;-37
2022/04/14 10:08:19;;;;;;;13.45;5.20;;;;;;;27.80;29.89;96829.72;4921277;28;21119;-31
2022/04/14 10:10:48;;;;;;;12.77;4.60;;;;;;;27.81;29.75;96827.94;4923001;28;20039;-33
2022/04/14 10:13:17;;;;;;;7.28;3.63;;;;;;;27.82;29.79;96827.88;4920474;28;20032;-32
2022/04/14 10:15:43;;;;;;;12.50;4.70;;;;;;;27.81;29.84;96828.81;4931962;28;20094;-29
2022/04/14 10:18:13;;;;;;;7.90;3.78;;;;;;;27.82;29.63;96827.88;4922307;28;20058;-35
2022/04/14 10:20:42;;;;;;;6.70;2.60;;;;;;;27.81;29.85;96826.19;4921723;28;20028;-30
2022/04/14 10:23:09;;;;;;;13.65;4.22;;;;;;;27.82;29.82;96822.59;4920766;28;20039;-33
2022/04/14 10:25:38;;;;;;;7.10;3.63;;;;;;;27.81;30.14;96827.94;4923389;28;20032;-31
2022/04/14 10:28:07;;;;;;;6.88;3.17;;;;;;;27.80;29.76;96824.47;4924827;28;20050;-34
2022/04/14 10:30:33;;;;;;;8.63;3.20;;;;;;;27.81;29.84;96815.66;4939335;28;20106;-31
2022/04/14 10:32:58;;;;;;;7.45;2.20;;;;;;;27.82;29.92;96822.59;4924419;28;20043;-35
2022/04/14 10:35:29;;;;;;;7.80;2.90;;;;;;;27.81;29.96;96820.91;4923947;28;20118;-36
2022/04/14 10:38:07;;;;;;;11.43;2.90;;;;;;;27.80;30.19;96821.81;4923114;28;20047;-31
2022/04/14 10:40:32;;;;;;;8.48;2.90;;;;;;;27.81;30.00;96825.31;4924338;28;20027;-30
2022/04/14 10:42:58;;;;;;;8.23;2.70;;;;;;;27.81;30.22;96826.19;4923067;28;20043;-36
2022/04/14 10:45:24;;;;;;;13.80;2.78;;;;;;;27.81;30.10;96820.91;4922888;28;20038;-36
2022/04/14 10:47:56;;;;;;;9.15;2.55;;;;;;;27.81;30.21;96810.38;4926208;28;20430;-31
2022/04/14 10:50:22;;;;;;;7.35;2.60;;;;;;;27.82;30.17;96817.34;4928720;28;20059;-31
2022/04/14 10:53:21;;;;;;;12.48;3.00;;;;;;;27.83;30.29;96813.75;4925586;28;20766;-39
2022/04/14 10:55:47;;;;;;;5.95;2.80;;;;;;;27.84;30.32;96815.44;4928337;28;20031;-33
2022/04/14 10:58:28;;;;;;;13.73;3.30;;;;;;;27.85;30.32;96811.88;4926120;28;20329;-35
2022/04/14 11:00:56;;;;;;;12.45;2.97;;;;;;;27.86;30.25;96812.72;4927583;28;20031;-33
2022/04/14 11:03:47;;;;;;;9.00;2.92;;;;;;;27.86;30.31;96812.72;4927011;28;20129;-32
2022/04/14 11:06:41;;;;;;;7.82;3.20;;;;;;;27.87;30.28;96810.00;4924843;28;20045;-30
2022/04/14 11:09:07;;;;;;;9.45;3.20;;;;;;;27.88;30.59;96821.38;4924614;28;20160;-33
2022/04/14 11:11:58;;;;;;;7.43;2.92;;;;;;;27.87;30.29;96817.88;4925243;28;20039;-32
2022/04/14 11:14:23;;;;;;;9.68;3.65;;;;;;;27.89;30.29;96817.81;4927017;28;20127;-37
2022/04/14 11:16:49;;;;;;;9.80;2.72;;;;;;;27.90;30.36;96825.63;4924860;28;20951;-31
2022/04/14 11:19:21;;;;;;;11.77;3.75;;;;;;;27.89;30.40;96816.00;4927640;28;20035;-32
2022/04/14 11:21:58;;;;;;;7.25;3.15;;;;;;;27.90;30.51;96822.97;4931824;28;20097;-29
2022/04/14 11:24:52;;;;;;;9.13;3.15;;;;;;;27.91;30.57;96822.03;4928175;28;20026;-32
2022/04/14 11:27:21;;;;;;;7.47;2.65;;;;;;;27.92;30.33;96821.09;4926206;28;20051;-36
2022/04/14 11:29:48;;;;;;;9.75;3.10;;;;;;;27.93;30.43;96821.94;4929212;28;20027;-35
2022/04/14 11:32:14;;;;;;;7.10;2.90;;;;;;;27.92;30.45;96821.09;4925951;28;20114;-32